Time;durP1;ratioP1;P1;durP2;ratioP2;P2;SDS_P1;SDS_P2;PMS_P1;PMS_P2;Temp;Humidity;BMP_temperature;BMP_pressure;BME280_temperature;BME280_humidity;BME280_pressure;Samples;Min_cycle;Max_cycle;Signal;HPM_P1;HPM_P2
2022/01/22 00:01:54;;;;;;;6.97;3.58;;;;;;;;;;5025762;28;20033;-60
2022/01/22 00:04:20;;;;;;;7.28;3.85;;;;;;;;;;5023266;28;20035;-59
2022/01/22 00:06:46;;;;;;;7.25;3.72;;;;;;;;;;5014216;28;20719;-59
2022/01/22 00:09:12;;;;;;;5.50;3.60;;;;;;;;;;5029604;28;20026;-59
2022/01/22 00:11:50;;;;;;;8.85;4.10;;;;;;;;;;5025748;28;20033;-58
2022/01/22 00:14:25;;;;;;;7.53;4.03;;;;;;;;;;5022518;28;20025;-59
2022/01/22 00:16:54;;;;;;;7.18;3.90;;;;;;;;;;5027012;28;20025;-60
2022/01/22 00:19:20;;;;;;;5.60;3.30;;;;;;;;;;5023390;28;20513;-59
2022/01/22 00:21:47;;;;;;;9.15;3.95;;;;;;;;;;5027208;28;20397;-59
2022/01/22 00:24:13;;;;;;;6.30;3.58;;;;;;;;;;5032788;28;20037;-59
2022/01/22 00:26:40;;;;;;;8.48;3.95;;;;;;;;;;5032584;28;20028;-59
2022/01/22 00:29:06;;;;;;;6.97;3.92;;;;;;;;;;5025690;28;20025;-60
2022/01/22 00:31:32;;;;;;;6.85;3.90;;;;;;;;;;5031305;28;20075;-59
2022/01/22 00:33:58;;;;;;;5.70;3.70;;;;;;;;;;5032599;28;20022;-60
2022/01/22 00:36:23;;;;;;;5.45;3.35;;;;;;;;;;5029741;28;20095;-59
2022/01/22 00:38:49;;;;;;;5.38;2.97;;;;;;;;;;5028617;28;20777;-59
2022/01/22 00:41:15;;;;;;;6.78;3.33;;;;;;;;;;5028273;28;20091;-60
2022/01/22 00:43:42;;;;;;;8.18;3.67;;;;;;;;;;5027134;28;20065;-60
2022/01/22 00:46:08;;;;;;;6.57;3.33;;;;;;;;;;5032800;28;20025;-60
2022/01/22 00:48:34;;;;;;;7.13;3.80;;;;;;;;;;5024306;28;20424;-60
2022/01/22 00:51:00;;;;;;;5.13;2.95;;;;;;;;;;5029474;28;20124;-59
2022/01/22 00:53:27;;;;;;;5.47;3.00;;;;;;;;;;5017358;28;20045;-60
2022/01/22 00:55:53;;;;;;;5.97;3.00;;;;;;;;;;5033351;28;20104;-59
2022/01/22 00:58:19;;;;;;;6.15;3.20;;;;;;;;;;5030639;28;20057;-60
2022/01/22 01:00:45;;;;;;;5.15;3.10;;;;;;;;;;5031689;28;20025;-60
2022/01/22 01:03:11;;;;;;;6.05;3.47;;;;;;;;;;5030605;28;20036;-59
2022/01/22 01:05:37;;;;;;;7.38;3.70;;;;;;;;;;5026819;28;20061;-60
2022/01/22 01:08:03;;;;;;;6.50;3.40;;;;;;;;;;5033862;28;20163;-60
2022/01/22 01:10:30;;;;;;;5.35;3.00;;;;;;;;;;5032186;28;20041;-60
2022/01/22 01:12:56;;;;;;;8.43;4.10;;;;;;;;;;5028416;28;20029;-60
2022/01/22 01:15:54;;;;;;;5.93;3.60;;;;;;;;;;5027115;28;20036;-60
2022/01/22 01:32:18;;;;;;;5.05;2.78;;;;;;;;;;5021945;28;20087;-60
2022/01/22 01:34:45;;;;;;;6.85;3.65;;;;;;;;;;5017290;28;20037;-60
2022/01/22 01:37:14;;;;;;;4.95;2.90;;;;;;;;;;5032490;28;20405;-60
2022/01/22 01:39:41;;;;;;;5.65;2.60;;;;;;;;;;5024227;28;20030;-60
2022/01/22 01:42:12;;;;;;;4.32;2.75;;;;;;;;;;5025736;28;20034;-60
2022/01/22 01:44:39;;;;;;;7.13;3.40;;;;;;;;;;5026157;28;20041;-60
2022/01/22 01:47:07;;;;;;;5.85;3.08;;;;;;;;;;5025281;28;20088;-59
2022/01/22 01:49:33;;;;;;;6.25;3.22;;;;;;;;;;5032265;28;20029;-59
2022/01/22 01:52:02;;;;;;;6.10;3.20;;;;;;;;;;5032744;28;20105;-59
2022/01/22 01:54:35;;;;;;;5.95;2.88;;;;;;;;;;5029300;28;20364;-60
2022/01/22 01:59:48;;;;;;;6.43;3.05;;;;;;;;;;5029900;28;20137;-60
2022/01/22 02:02:14;;;;;;;5.38;2.63;;;;;;;;;;5030216;28;20041;-60
2022/01/22 02:04:41;;;;;;;5.68;2.92;;;;;;;;;;5030592;28;20029;-61
2022/01/22 02:07:07;;;;;;;5.78;3.05;;;;;;;;;;5033055;28;20040;-60
2022/01/22 02:09:34;;;;;;;7.43;3.03;;;;;;;;;;5028224;28;20037;-60
2022/01/22 02:12:13;;;;;;;4.82;2.83;;;;;;;;;;5033537;28;20029;-60
2022/01/22 02:25:19;;;;;;;3.92;2.53;;;;;;;;;;5025647;28;20551;-60
2022/01/22 02:27:45;;;;;;;5.53;3.05;;;;;;;;;;5027512;28;20128;-60
2022/01/22 02:30:19;;;;;;;5.70;2.65;;;;;;;;;;5030510;28;20041;-60
2022/01/22 02:33:05;;;;;;;5.10;2.72;;;;;;;;;;5028561;28;20108;-60
2022/01/22 02:35:41;;;;;;;4.43;2.55;;;;;;;;;;5025035;28;20045;-60
2022/01/22 02:38:14;;;;;;;5.80;3.47;;;;;;;;;;5027439;28;20591;-60
2022/01/22 02:40:47;;;;;;;;;;;;;;;;;;5018993;28;20029;-60
2022/01/22 02:43:13;;;;;;;6.53;2.60;;;;;;;;;;5020338;28;19955;-61
2022/01/22 02:45:40;;;;;;;4.95;2.67;;;;;;;;;;5029874;28;20033;-61
2022/01/22 02:48:06;;;;;;;5.40;3.33;;;;;;;;;;5027335;28;20132;-61
2022/01/22 02:50:32;;;;;;;5.55;3.05;;;;;;;;;;5025856;28;20029;-60
2022/01/22 02:53:02;;;;;;;4.35;2.15;;;;;;;;;;5039013;28;20104;-61
2022/01/22 02:55:28;;;;;;;5.45;2.90;;;;;;;;;;5024140;28;20036;-60
2022/01/22 02:57:54;;;;;;;5.13;2.83;;;;;;;;;;5022164;28;20091;-61
2022/01/22 03:00:22;;;;;;;4.35;2.40;;;;;;;;;;5023749;28;20025;-60
2022/01/22 03:02:49;;;;;;;4.85;2.85;;;;;;;;;;5031499;28;20029;-60
2022/01/22 03:05:15;;;;;;;5.40;2.75;;;;;;;;;;5020341;28;20449;-60
2022/01/22 03:07:43;;;;;;;5.15;2.97;;;;;;;;;;5021366;28;20438;-60
2022/01/22 03:10:14;;;;;;;4.38;2.50;;;;;;;;;;5026501;28;20052;-60
2022/01/22 03:15:32;;;;;;;5.60;2.80;;;;;;;;;;5014397;28;20050;-60
2022/01/22 03:18:02;;;;;;;4.65;2.53;;;;;;;;;;5021466;28;20029;-58
2022/01/22 03:28:58;;;;;;;4.88;2.75;;;;;;;;;;5025635;28;20037;-61
2022/01/22 03:31:24;;;;;;;4.20;2.35;;;;;;;;;;5027528;28;20043;-60
2022/01/22 03:33:50;;;;;;;5.00;2.70;;;;;;;;;;5021420;28;20021;-61
2022/01/22 03:36:18;;;;;;;5.40;2.30;;;;;;;;;;5024058;28;20401;-60
2022/01/22 03:38:44;;;;;;;4.50;2.65;;;;;;;;;;5030693;28;20034;-61
2022/01/22 03:41:10;;;;;;;4.18;2.35;;;;;;;;;;5019095;28;20056;-61
2022/01/22 03:43:36;;;;;;;3.47;1.90;;;;;;;;;;5018383;28;20026;-60
2022/01/22 03:46:02;;;;;;;5.65;2.50;;;;;;;;;;5023299;28;20029;-60
2022/01/22 03:48:28;;;;;;;4.10;1.92;;;;;;;;;;5026599;28;20065;-61
2022/01/22 03:50:54;;;;;;;4.55;2.45;;;;;;;;;;5027981;28;20030;-61
2022/01/22 03:53:20;;;;;;;3.00;1.90;;;;;;;;;;5023484;28;20096;-61
2022/01/22 03:58:12;;;;;;;4.78;2.35;;;;;;;;;;5024770;28;20105;-61
2022/01/22 04:00:38;;;;;;;5.07;2.03;;;;;;;;;;5031200;28;20064;-61
2022/01/22 04:06:10;;;;;;;5.82;2.30;;;;;;;;;;5031724;28;20655;-61
2022/01/22 04:08:35;;;;;;;3.95;2.10;;;;;;;;;;5026728;28;20033;-61
2022/01/22 04:11:02;;;;;;;4.47;2.25;;;;;;;;;;5022704;28;20097;-61
2022/01/22 04:13:33;;;;;;;5.82;2.17;;;;;;;;;;5023465;28;20080;-61
2022/01/22 04:15:59;;;;;;;4.38;2.40;;;;;;;;;;5019922;28;20496;-60
2022/01/22 04:29:05;;;;;;;4.75;2.05;;;;;;;;;;5034610;28;20029;-60
2022/01/22 04:31:31;;;;;;;4.53;1.90;;;;;;;;;;5029790;28;20037;-60
2022/01/22 04:33:57;;;;;;;6.80;1.90;;;;;;;;;;5028041;28;20500;-60
2022/01/22 04:36:23;;;;;;;3.28;1.85;;;;;;;;;;5037117;28;20053;-60
2022/01/22 04:38:49;;;;;;;3.92;1.83;;;;;;;;;;5026589;28;20029;-60
2022/01/22 04:41:15;;;;;;;4.32;2.40;;;;;;;;;;5029393;28;20073;-60
2022/01/22 04:43:43;;;;;;;4.10;1.63;;;;;;;;;;5024319;28;20029;-60
2022/01/22 04:46:23;;;;;;;4.13;2.20;;;;;;;;;;5025649;28;20113;-61
2022/01/22 04:49:06;;;;;;;3.83;1.90;;;;;;;;;;5025842;28;20114;-60
2022/01/22 04:57:01;;;;;;;7.15;2.30;;;;;;;;;;5028785;28;20068;-60
2022/01/22 04:59:27;;;;;;;6.93;2.40;;;;;;;;;;5029305;28;20049;-60
2022/01/22 05:01:53;;;;;;;6.38;2.45;;;;;;;;;;5029505;28;20531;-60
2022/01/22 05:04:19;;;;;;;6.80;2.95;;;;;;;;;;5019776;28;20029;-61
2022/01/22 05:06:45;;;;;;;5.80;2.58;;;;;;;;;;5031606;28;20037;-61
2022/01/22 05:09:11;;;;;;;5.68;2.47;;;;;;;;;;5030165;28;20437;-61
2022/01/22 05:11:37;;;;;;;4.53;2.80;;;;;;;;;;5026578;28;20033;-61
2022/01/22 05:14:03;;;;;;;5.78;2.92;;;;;;;;;;5024351;28;20525;-60
2022/01/22 05:16:29;;;;;;;4.78;2.28;;;;;;;;;;5028740;28;20061;-60
2022/01/22 05:19:01;;;;;;;7.05;2.10;;;;;;;;;;5018275;28;20029;-61
2022/01/22 05:21:29;;;;;;;4.53;2.55;;;;;;;;;;5020147;28;20040;-61
2022/01/22 05:23:59;;;;;;;6.00;2.95;;;;;;;;;;5024202;28;20030;-61
2022/01/22 05:37:07;;;;;;;6.53;2.58;;;;;;;;;;5024121;28;20092;-61
2022/01/22 05:39:34;;;;;;;8.70;2.95;;;;;;;;;;5031209;28;20503;-61
2022/01/22 05:42:02;;;;;;;6.53;2.75;;;;;;;;;;5024965;28;20030;-60
2022/01/22 05:44:29;;;;;;;6.97;2.40;;;;;;;;;;5031425;28;20064;-60
2022/01/22 05:46:58;;;;;;;4.45;2.55;;;;;;;;;;5032075;28;20434;-61
2022/01/22 05:49:26;;;;;;;4.72;2.55;;;;;;;;;;5029087;28;20033;-61
2022/01/22 05:51:55;;;;;;;5.35;2.60;;;;;;;;;;5021937;28;20392;-61
2022/01/22 05:59:39;;;;;;;6.45;2.42;;;;;;;;;;5026750;28;20048;-60
2022/01/22 06:02:15;;;;;;;7.97;3.30;;;;;;;;;;5025969;28;21773;-60
2022/01/22 06:04:42;;;;;;;5.82;2.78;;;;;;;;;;5024142;28;20065;-61
2022/01/22 06:07:09;;;;;;;10.93;3.10;;;;;;;;;;5031709;28;20037;-61
2022/01/22 06:09:38;;;;;;;4.57;2.70;;;;;;;;;;5024227;28;20503;-61
2022/01/22 06:12:16;;;;;;;7.15;2.75;;;;;;;;;;5022313;28;20033;-61
2022/01/22 06:14:42;;;;;;;4.90;2.45;;;;;;;;;;5025107;28;20078;-61
2022/01/22 06:17:09;;;;;;;6.65;2.78;;;;;;;;;;5026904;28;20053;-61
2022/01/22 06:19:35;;;;;;;5.00;2.03;;;;;;;;;;5026070;28;20050;-61
2022/01/22 06:22:01;;;;;;;5.50;2.45;;;;;;;;;;5022982;28;20443;-61
2022/01/22 06:24:27;;;;;;;5.22;2.30;;;;;;;;;;5027861;28;20087;-61
2022/01/22 06:26:53;;;;;;;5.22;2.30;;;;;;;;;;5027448;28;20690;-61
2022/01/22 06:29:19;;;;;;;7.80;2.75;;;;;;;;;;5021215;28;20044;-61
2022/01/22 06:31:45;;;;;;;3.88;2.17;;;;;;;;;;5021773;28;20462;-61
2022/01/22 06:34:11;;;;;;;5.10;2.53;;;;;;;;;;5017214;28;20036;-61
2022/01/22 06:36:37;;;;;;;4.30;2.38;;;;;;;;;;5032223;28;20055;-61
2022/01/22 06:39:15;;;;;;;5.65;2.50;;;;;;;;;;5029013;28;20446;-61
2022/01/22 06:41:44;;;;;;;4.68;2.13;;;;;;;;;;5018038;28;20079;-61
2022/01/22 06:44:18;;;;;;;5.80;2.45;;;;;;;;;;5022137;28;20108;-61
2022/01/22 06:46:44;;;;;;;;;;;;;;;;;;5026191;28;20034;-60
2022/01/22 06:49:10;;;;;;;3.17;2.15;;;;;;;;;;5017336;28;20265;-61
2022/01/22 06:51:36;;;;;;;5.32;2.65;;;;;;;;;;5016268;28;20037;-61
2022/01/22 06:54:04;;;;;;;4.35;2.25;;;;;;;;;;5030418;28;20025;-61
2022/01/22 06:56:30;;;;;;;4.07;2.33;;;;;;;;;;5025318;28;20581;-60
2022/01/22 06:58:57;;;;;;;4.50;2.38;;;;;;;;;;5024349;28;20021;-61
2022/01/22 07:01:24;;;;;;;4.28;2.13;;;;;;;;;;5019779;28;20041;-61
2022/01/22 07:03:50;;;;;;;3.97;2.00;;;;;;;;;;5025495;28;20359;-61
2022/01/22 07:06:16;;;;;;;4.40;2.00;;;;;;;;;;5017029;28;20117;-61
2022/01/22 07:08:42;;;;;;;4.45;2.40;;;;;;;;;;5025492;28;20461;-61
2022/01/22 07:11:08;;;;;;;8.57;2.63;;;;;;;;;;5031175;28;20049;-60
2022/01/22 07:13:34;;;;;;;3.90;2.33;;;;;;;;;;5033830;28;20030;-61
2022/01/22 07:16:00;;;;;;;3.97;2.38;;;;;;;;;;5025966;28;20030;-60
2022/01/22 07:18:28;;;;;;;8.70;2.45;;;;;;;;;;5027085;28;20030;-61
2022/01/22 07:20:54;;;;;;;4.68;2.40;;;;;;;;;;5017518;28;20032;-60
2022/01/22 07:25:47;;;;;;;5.97;2.67;;;;;;;;;;5028029;28;20048;-61
2022/01/22 07:28:13;;;;;;;4.10;2.15;;;;;;;;;;5025777;28;20037;-61
2022/01/22 07:30:40;;;;;;;5.40;2.65;;;;;;;;;;5026276;28;20034;-61
2022/01/22 07:33:06;;;;;;;6.97;2.78;;;;;;;;;;5029532;28;20044;-61
2022/01/22 07:35:36;;;;;;;5.70;2.53;;;;;;;;;;5028031;28;20038;-61
2022/01/22 07:38:03;;;;;;;6.07;2.35;;;;;;;;;;5031299;28;20018;-61
2022/01/22 07:40:29;;;;;;;8.75;2.40;;;;;;;;;;5022196;28;20339;-61
2022/01/22 07:42:55;;;;;;;5.13;2.53;;;;;;;;;;5028260;28;20037;-61
2022/01/22 07:45:21;;;;;;;5.28;2.33;;;;;;;;;;5024794;28;20038;-61
2022/01/22 07:47:47;;;;;;;6.25;2.65;;;;;;;;;;5033671;28;20115;-61
2022/01/22 07:50:13;;;;;;;4.93;2.80;;;;;;;;;;5034949;28;20525;-61
2022/01/22 07:52:39;;;;;;;6.97;2.83;;;;;;;;;;5027142;28;20163;-60
2022/01/22 07:55:07;;;;;;;6.28;2.55;;;;;;;;;;5022778;28;20030;-61
2022/01/22 07:57:33;;;;;;;7.43;2.40;;;;;;;;;;5033100;28;20022;-60
2022/01/22 07:59:59;;;;;;;4.40;2.50;;;;;;;;;;5019107;28;20096;-61
2022/01/22 08:02:25;;;;;;;5.50;2.83;;;;;;;;;;5024308;28;20177;-61
2022/01/22 08:04:51;;;;;;;6.22;2.47;;;;;;;;;;5027940;28;20474;-61
2022/01/22 08:07:17;;;;;;;3.67;2.30;;;;;;;;;;5027548;28;20035;-61
2022/01/22 08:09:43;;;;;;;5.10;2.22;;;;;;;;;;5031956;28;20577;-61
2022/01/22 08:12:10;;;;;;;6.80;2.53;;;;;;;;;;5027706;28;20029;-61
2022/01/22 08:14:36;;;;;;;4.55;2.58;;;;;;;;;;5027163;28;20730;-61
2022/01/22 08:17:02;;;;;;;5.20;2.47;;;;;;;;;;5025385;28;20772;-61
2022/01/22 08:19:27;;;;;;;5.75;2.70;;;;;;;;;;5031392;28;20109;-61
2022/01/22 08:21:53;;;;;;;5.22;2.85;;;;;;;;;;5031780;28;20040;-61
2022/01/22 08:24:24;;;;;;;4.40;2.40;;;;;;;;;;5031911;28;20125;-61
2022/01/22 08:27:06;;;;;;;6.88;3.00;;;;;;;;;;5033318;28;20108;-61
2022/01/22 08:29:32;;;;;;;4.47;2.58;;;;;;;;;;5029837;28;20401;-61
2022/01/22 08:32:57;;;;;;;5.70;2.25;;;;;;;;;;5028574;28;20541;-61
2022/01/22 08:37:29;;;;;;;8.77;2.42;;;;;;;;;;5029995;28;20510;-60
2022/01/22 08:39:55;;;;;;;8.30;2.47;;;;;;;;;;5024714;28;20030;-61
2022/01/22 08:42:22;;;;;;;3.83;2.35;;;;;;;;;;5028934;28;20041;-61
2022/01/22 08:44:48;;;;;;;7.03;2.85;;;;;;;;;;5033973;28;20033;-61
2022/01/22 08:47:15;;;;;;;11.43;3.35;;;;;;;;;;5034705;28;20405;-61
2022/01/22 08:49:41;;;;;;;7.25;2.88;;;;;;;;;;5029941;28;20033;-61
2022/01/22 08:52:15;;;;;;;5.13;2.42;;;;;;;;;;5030049;28;20091;-61
2022/01/22 08:54:42;;;;;;;5.47;2.70;;;;;;;;;;5022250;28;20032;-61
2022/01/22 08:57:08;;;;;;;7.10;2.50;;;;;;;;;;5026604;28;20029;-61
2022/01/22 08:59:34;;;;;;;5.53;2.58;;;;;;;;;;5028714;28;20033;-61
2022/01/22 09:02:00;;;;;;;5.22;2.05;;;;;;;;;;5033099;28;20056;-61
2022/01/22 09:04:26;;;;;;;4.57;2.13;;;;;;;;;;5029198;28;20056;-61
2022/01/22 09:06:52;;;;;;;7.30;2.33;;;;;;;;;;5028744;28;20373;-61
2022/01/22 09:09:18;;;;;;;6.20;2.03;;;;;;;;;;5033894;28;20037;-61
2022/01/22 09:11:45;;;;;;;4.80;2.70;;;;;;;;;;5029222;28;20503;-60
2022/01/22 09:14:12;;;;;;;4.55;2.35;;;;;;;;;;5033951;28;20086;-61
2022/01/22 09:16:38;;;;;;;4.68;2.25;;;;;;;;;;5032522;28;20036;-61
2022/01/22 09:19:06;;;;;;;5.95;2.33;;;;;;;;;;5029741;28;20151;-60
2022/01/22 09:21:36;;;;;;;4.10;2.45;;;;;;;;;;5028682;28;20025;-61
2022/01/22 09:24:03;;;;;;;7.95;2.40;;;;;;;;;;5034021;28;20034;-61
2022/01/22 09:26:29;;;;;;;8.00;2.80;;;;;;;;;;5023548;28;20559;-61
2022/01/22 09:28:57;;;;;;;6.45;2.67;;;;;;;;;;5043430;28;20033;-61
2022/01/22 09:31:23;;;;;;;9.50;2.95;;;;;;;;;;5033169;28;20044;-61
2022/01/22 09:33:50;;;;;;;8.27;3.03;;;;;;;;;;5029893;28;20104;-61
2022/01/22 09:36:16;;;;;;;5.22;2.42;;;;;;;;;;5029618;28;20148;-61
2022/01/22 09:38:42;;;;;;;5.90;2.63;;;;;;;;;;5032645;28;20036;-61
2022/01/22 09:41:08;;;;;;;5.00;2.75;;;;;;;;;;5029846;28;20727;-61
2022/01/22 09:43:34;;;;;;;6.13;2.85;;;;;;;;;;5032256;28;20061;-61
2022/01/22 09:46:00;;;;;;;4.85;2.70;;;;;;;;;;5035570;28;20430;-61
2022/01/22 09:48:26;;;;;;;5.25;2.60;;;;;;;;;;5030723;28;20068;-61
2022/01/22 09:50:52;;;;;;;7.18;3.35;;;;;;;;;;5025099;28;20057;-61
2022/01/22 09:53:19;;;;;;;11.05;3.63;;;;;;;;;;5030901;28;20033;-61
2022/01/22 09:55:46;;;;;;;5.18;2.72;;;;;;;;;;5028017;28;20036;-61
2022/01/22 09:58:12;;;;;;;4.68;2.58;;;;;;;;;;5032210;28;20033;-61
2022/01/22 10:00:38;;;;;;;4.95;2.55;;;;;;;;;;5032824;28;20366;-61
2022/01/22 10:03:15;;;;;;;6.85;2.47;;;;;;;;;;5029417;28;20026;-61
2022/01/22 10:05:41;;;;;;;3.90;2.50;;;;;;;;;;5033403;28;20029;-61
2022/01/22 10:08:24;;;;;;;7.97;2.90;;;;;;;;;;5032691;28;20029;-61
2022/01/22 10:10:51;;;;;;;4.72;2.20;;;;;;;;;;5032820;28;20037;-61
2022/01/22 10:13:37;;;;;;;5.07;2.40;;;;;;;;;;5037587;28;20029;-60
2022/01/22 10:16:12;;;;;;;6.85;2.05;;;;;;;;;;5032322;28;20075;-61
2022/01/22 10:18:38;;;;;;;4.55;2.50;;;;;;;;;;5013124;28;20026;-61
2022/01/22 10:21:08;;;;;;;8.20;4.45;;;;;;;;;;5024133;28;20040;-60
2022/01/22 10:23:39;;;;;;;4.35;2.20;;;;;;;;;;5030635;28;20040;-61
2022/01/22 10:26:06;;;;;;;8.70;2.70;;;;;;;;;;5030076;28;20032;-61
2022/01/22 10:28:41;;;;;;;5.15;2.30;;;;;;;;;;5024200;28;20022;-61
2022/01/22 10:31:10;;;;;;;6.00;2.00;;;;;;;;;;5028453;28;20074;-61
2022/01/22 10:33:36;;;;;;;4.28;2.20;;;;;;;;;;5031521;28;20030;-61
2022/01/22 10:36:10;;;;;;;4.32;2.53;;;;;;;;;;5036611;28;20506;-61
2022/01/22 10:38:56;;;;;;;6.07;2.20;;;;;;;;;;5036144;28;20033;-61
2022/01/22 10:41:55;;;;;;;2.38;1.35;;;;;;;;;;5026139;28;20116;-61
2022/01/22 10:44:36;;;;;;;5.88;1.58;;;;;;;;;;5009584;28;20052;-60
2022/01/22 10:47:03;;;;;;;4.55;1.75;;;;;;;;;;5022011;28;20035;-61
2022/01/22 10:49:30;;;;;;;3.03;1.75;;;;;;;;;;5027949;28;20099;-61
2022/01/22 10:52:00;;;;;;;6.30;1.45;;;;;;;;;;5031406;28;20350;-61
2022/01/22 10:54:34;;;;;;;5.85;1.52;;;;;;;;;;5022691;28;20021;-61
2022/01/22 10:57:13;;;;;;;8.15;1.80;;;;;;;;;;5026119;28;20026;-61
2022/01/22 10:59:44;;;;;;;2.80;1.60;;;;;;;;;;5029895;28;20036;-59
2022/01/22 11:02:12;;;;;;;7.90;1.60;;;;;;;;;;5031464;28;20026;-61
2022/01/22 11:04:37;;;;;;;4.88;1.20;;;;;;;;;;5027246;28;20477;-61
2022/01/22 11:07:08;;;;;;;4.03;1.30;;;;;;;;;;5020926;28;20059;-61
2022/01/22 11:09:34;;;;;;;4.47;1.30;;;;;;;;;;5024879;28;20116;-61
2022/01/22 11:12:02;;;;;;;4.03;1.83;;;;;;;;;;5026326;28;20112;-61
2022/01/22 11:14:29;;;;;;;2.97;1.17;;;;;;;;;;5018495;28;20132;-61
2022/01/22 11:16:55;;;;;;;3.88;1.30;;;;;;;;;;5026149;28;20520;-60
2022/01/22 11:19:22;;;;;;;4.80;1.23;;;;;;;;;;5025471;28;20030;-61
2022/01/22 11:21:49;;;;;;;3.08;1.55;;;;;;;;;;5020096;28;20076;-61
2022/01/22 11:24:20;;;;;;;1.85;1.10;;;;;;;;;;5026311;28;20520;-61
2022/01/22 11:26:56;;;;;;;7.07;1.90;;;;;;;;;;5019479;28;20033;-60
2022/01/22 11:29:29;;;;;;;2.60;1.27;;;;;;;;;;5018635;28;20132;-61
2022/01/22 11:31:55;;;;;;;3.17;1.33;;;;;;;;;;5024664;28;20057;-60
2022/01/22 11:34:23;;;;;;;5.47;1.45;;;;;;;;;;5020475;28;20022;-61
2022/01/22 11:36:58;;;;;;;5.57;1.60;;;;;;;;;;5028775;28;20042;-61
2022/01/22 11:39:24;;;;;;;2.03;1.30;;;;;;;;;;5020754;28;20369;-61
2022/01/22 11:41:52;;;;;;;3.47;1.65;;;;;;;;;;5021704;28;20033;-60
2022/01/22 11:44:46;;;;;;;4.18;2.05;;;;;;;;;;5024289;28;20037;-61
2022/01/22 11:47:17;;;;;;;9.50;1.52;;;;;;;;;;5020232;28;20033;-60
2022/01/22 11:50:04;;;;;;;3.83;1.45;;;;;;;;;;5020140;28;20030;-60
2022/01/22 11:52:33;;;;;;;2.97;1.13;;;;;;;;;;5025229;28;20025;-60
2022/01/22 11:55:00;;;;;;;5.40;1.77;;;;;;;;;;5019547;28;20083;-60
2022/01/22 11:57:29;;;;;;;4.55;1.55;;;;;;;;;;5025464;28;20036;-61
2022/01/22 12:00:13;;;;;;;5.40;1.63;;;;;;;;;;5018210;28;20032;-61
2022/01/22 12:02:39;;;;;;;4.35;1.70;;;;;;;;;;5023019;28;20033;-61
2022/01/22 12:05:05;;;;;;;3.10;1.38;;;;;;;;;;5025111;28;20900;-61
2022/01/22 12:07:36;;;;;;;2.85;1.63;;;;;;;;;;5017238;28;20040;-60
2022/01/22 12:10:16;;;;;;;5.90;1.50;;;;;;;;;;5028369;28;20022;-60
2022/01/22 12:15:36;;;;;;;5.40;1.33;;;;;;;;;;5029206;28;20053;-61
2022/01/22 12:18:04;;;;;;;3.10;1.40;;;;;;;;;;5019474;28;21404;-60
2022/01/22 12:23:13;;;;;;;2.20;1.10;;;;;;;;;;5027075;28;20041;-60
2022/01/22 12:25:39;;;;;;;7.95;1.33;;;;;;;;;;5023691;28;20405;-60
2022/01/22 12:28:06;;;;;;;3.03;1.33;;;;;;;;;;5027573;28;20029;-60
2022/01/22 12:30:39;;;;;;;1.52;0.90;;;;;;;;;;5027730;28;20033;-60
2022/01/22 12:33:12;;;;;;;4.43;1.88;;;;;;;;;;5024219;28;20072;-61
2022/01/22 12:35:39;;;;;;;3.22;1.27;;;;;;;;;;5027841;28;20045;-61
2022/01/22 12:38:29;;;;;;;3.47;1.10;;;;;;;;;;5030001;28;20034;-61
2022/01/22 12:41:00;;;;;;;3.15;1.30;;;;;;;;;;5028667;28;20416;-61
2022/01/22 12:43:35;;;;;;;4.40;1.40;;;;;;;;;;5034267;28;20071;-61
2022/01/22 12:46:03;;;;;;;3.28;1.05;;;;;;;;;;5030142;28;20029;-61
2022/01/22 12:48:30;;;;;;;3.65;1.35;;;;;;;;;;5031192;28;20091;-61
2022/01/22 12:51:06;;;;;;;2.40;1.20;;;;;;;;;;5023990;28;20060;-61
2022/01/22 12:53:33;;;;;;;4.68;1.20;;;;;;;;;;5031152;28;20075;-61
2022/01/22 12:58:26;;;;;;;2.67;1.45;;;;;;;;;;5028779;28;20045;-61
2022/01/22 13:01:07;;;;;;;7.72;1.70;;;;;;;;;;5025606;28;20018;-61
2022/01/22 13:03:34;;;;;;;5.00;1.50;;;;;;;;;;5032650;28;20064;-61
2022/01/22 13:06:00;;;;;;;2.45;1.20;;;;;;;;;;5025112;28;20041;-61
2022/01/22 13:08:27;;;;;;;2.20;1.15;;;;;;;;;;5029099;28;20033;-61
2022/01/22 13:10:55;;;;;;;3.00;1.15;;;;;;;;;;5030819;28;20063;-60
2022/01/22 13:13:21;;;;;;;3.75;1.33;;;;;;;;;;5031487;28;20041;-60
2022/01/22 13:15:47;;;;;;;4.80;1.52;;;;;;;;;;5024775;28;20555;-59
2022/01/22 13:18:13;;;;;;;3.67;1.75;;;;;;;;;;5027085;28;20124;-60
2022/01/22 13:20:39;;;;;;;3.10;1.65;;;;;;;;;;5029047;28;20018;-60
2022/01/22 13:23:18;;;;;;;2.50;1.60;;;;;;;;;;5025174;28;20046;-59
2022/01/22 13:25:44;;;;;;;5.82;1.65;;;;;;;;;;5032138;28;20037;-60
2022/01/22 13:28:12;;;;;;;4.10;1.65;;;;;;;;;;5021619;28;20637;-61
2022/01/22 13:30:43;;;;;;;5.50;1.40;;;;;;;;;;5028203;28;20030;-58
2022/01/22 13:33:21;;;;;;;3.97;1.63;;;;;;;;;;5032525;28;20124;-61
2022/01/22 13:38:56;;;;;;;5.85;1.58;;;;;;;;;;5018816;28;20041;-60
2022/01/22 13:49:39;;;;;;;4.05;2.22;;;;;;;;;;5019721;28;20040;-61
2022/01/22 13:52:06;;;;;;;3.65;1.80;;;;;;;;;;5031341;28;20029;-60
2022/01/22 13:54:33;;;;;;;4.82;1.83;;;;;;;;;;5031518;28;20088;-61
2022/01/22 13:57:04;;;;;;;6.30;2.17;;;;;;;;;;5026375;28;20105;-61
2022/01/22 13:59:31;;;;;;;4.65;1.88;;;;;;;;;;5016560;28;20031;-61
2022/01/22 14:04:53;;;;;;;6.35;2.30;;;;;;;;;;5024514;28;20041;-61
2022/01/22 14:07:30;;;;;;;4.55;2.05;;;;;;;;;;5029827;28;20112;-61
2022/01/22 14:09:57;;;;;;;6.22;2.22;;;;;;;;;;5023547;28;20079;-61
2022/01/22 14:12:24;;;;;;;6.70;2.30;;;;;;;;;;5029223;28;20040;-61
2022/01/22 14:14:54;;;;;;;4.53;1.70;;;;;;;;;;5024984;28;20060;-61
2022/01/22 14:17:22;;;;;;;6.20;2.10;;;;;;;;;;5031661;28;20060;-61
2022/01/22 14:19:57;;;;;;;6.40;1.90;;;;;;;;;;5032255;28;20026;-61
2022/01/22 14:22:23;;;;;;;5.38;2.22;;;;;;;;;;5032026;28;20109;-60
2022/01/22 14:24:49;;;;;;;3.30;2.20;;;;;;;;;;5031094;28;20100;-60
2022/01/22 14:27:19;;;;;;;6.03;2.53;;;;;;;;;;5024281;28;20351;-61
2022/01/22 14:29:45;;;;;;;2.70;1.60;;;;;;;;;;5021694;28;20401;-61
2022/01/22 14:32:17;;;;;;;4.20;2.00;;;;;;;;;;5025104;28;20481;-61
2022/01/22 14:34:45;;;;;;;9.02;2.42;;;;;;;;;;5028581;28;20028;-61
2022/01/22 14:37:25;;;;;;;2.92;1.30;;;;;;;;;;5033331;28;20540;-61
2022/01/22 14:45:25;;;;;;;4.88;1.85;;;;;;;;;;5024581;28;20052;-61
2022/01/22 14:47:56;;;;;;;3.17;1.40;;;;;;;;;;5021747;28;20030;-61
2022/01/22 14:50:22;;;;;;;3.97;1.55;;;;;;;;;;5026809;28;20025;-61
2022/01/22 14:52:53;;;;;;;6.25;1.40;;;;;;;;;;5029948;28;20034;-60
2022/01/22 14:55:19;;;;;;;1.73;1.45;;;;;;;;;;5031967;28;20025;-61
2022/01/22 14:57:45;;;;;;;6.78;1.60;;;;;;;;;;5026521;28;20074;-61
2022/01/22 15:00:15;;;;;;;3.88;2.17;;;;;;;;;;5025201;28;20033;-60
2022/01/22 15:02:42;;;;;;;3.17;1.70;;;;;;;;;;5028641;28;20481;-60
2022/01/22 15:05:09;;;;;;;4.53;1.77;;;;;;;;;;5031703;28;20033;-61
2022/01/22 15:07:35;;;;;;;4.57;1.45;;;;;;;;;;5024726;28;20451;-60
2022/01/22 15:10:02;;;;;;;5.75;1.67;;;;;;;;;;5030834;28;20059;-61
2022/01/22 15:12:28;;;;;;;2.83;1.65;;;;;;;;;;5029035;28;20033;-61
2022/01/22 15:14:54;;;;;;;5.05;1.80;;;;;;;;;;5029114;28;20044;-61
2022/01/22 15:19:47;;;;;;;5.22;1.60;;;;;;;;;;5027608;28;20044;-60
2022/01/22 15:22:17;;;;;;;6.60;1.80;;;;;;;;;;5031553;28;20037;-61
2022/01/22 15:24:44;;;;;;;5.10;1.80;;;;;;;;;;5026562;28;20029;-61
2022/01/22 15:27:12;;;;;;;7.05;1.70;;;;;;;;;;5032210;28;20029;-60
2022/01/22 15:29:53;;;;;;;4.47;1.75;;;;;;;;;;5021788;28;20113;-61
2022/01/22 15:32:38;;;;;;;2.53;1.52;;;;;;;;;;5024928;28;20034;-61
2022/01/22 15:35:06;;;;;;;2.88;1.23;;;;;;;;;;5024623;28;20036;-61
2022/01/22 15:37:33;;;;;;;1.70;1.30;;;;;;;;;;5029740;28;20040;-60
2022/01/22 15:39:59;;;;;;;6.82;1.70;;;;;;;;;;5026237;28;20025;-60
2022/01/22 15:42:25;;;;;;;3.05;1.50;;;;;;;;;;5029503;28;20021;-60
2022/01/22 15:44:51;;;;;;;3.55;1.63;;;;;;;;;;5022010;28;20581;-60
2022/01/22 15:47:17;;;;;;;8.82;3.08;;;;;;;;;;5018500;28;20110;-59
2022/01/22 15:49:45;;;;;;;3.60;1.88;;;;;;;;;;5029368;28;20033;-60
2022/01/22 15:52:12;;;;;;;8.27;2.15;;;;;;;;;;5031352;28;20404;-60
2022/01/22 15:54:39;;;;;;;5.20;2.20;;;;;;;;;;5032588;28;20401;-60
2022/01/22 15:57:06;;;;;;;5.40;2.10;;;;;;;;;;5027415;28;20069;-60
2022/01/22 15:59:33;;;;;;;3.40;1.92;;;;;;;;;;5031987;28;20038;-60
2022/01/22 16:01:59;;;;;;;3.78;1.88;;;;;;;;;;5032917;28;20355;-60
2022/01/22 16:04:25;;;;;;;7.60;2.17;;;;;;;;;;5034044;28;20092;-60
2022/01/22 16:09:19;;;;;;;8.05;2.22;;;;;;;;;;5022698;28;20040;-60
2022/01/22 16:11:46;;;;;;;7.03;2.50;;;;;;;;;;5032523;28;20025;-60
2022/01/22 16:14:12;;;;;;;6.00;2.80;;;;;;;;;;5033184;28;20374;-60
2022/01/22 16:16:42;;;;;;;12.07;3.83;;;;;;;;;;5028698;28;20529;-60
2022/01/22 16:19:09;;;;;;;5.88;3.28;;;;;;;;;;5029637;28;20493;-60
2022/01/22 16:21:35;;;;;;;6.68;3.72;;;;;;;;;;5032058;28;20040;-60
2022/01/22 16:24:01;;;;;;;12.20;4.93;;;;;;;;;;5028843;28;20068;-60
2022/01/22 16:26:27;;;;;;;12.55;4.43;;;;;;;;;;5029668;28;20537;-60
2022/01/22 16:28:54;;;;;;;13.68;4.60;;;;;;;;;;5033780;28;20409;-60
2022/01/22 16:31:20;;;;;;;10.90;4.38;;;;;;;;;;5026162;28;20351;-60
2022/01/22 16:33:46;;;;;;;10.40;4.13;;;;;;;;;;5024105;28;20369;-60
2022/01/22 16:36:13;;;;;;;10.85;4.38;;;;;;;;;;5038679;28;20044;-60
2022/01/22 16:38:40;;;;;;;7.55;3.50;;;;;;;;;;5032547;28;20109;-60
2022/01/22 16:41:07;;;;;;;9.98;4.82;;;;;;;;;;5031145;28;20576;-60
2022/01/22 16:43:35;;;;;;;8.15;4.38;;;;;;;;;;5019391;28;20471;-60
2022/01/22 16:54:46;;;;;;;8.13;3.20;;;;;;;;;;5029174;28;20044;-60